createdAt,value
2019-04-27T00:02:26.403Z,22.97
2019-04-27T00:04:55.795Z,21.90
2019-04-27T00:07:35.045Z,24.93
2019-04-27T00:10:09.416Z,20.10
2019-04-27T00:12:37.995Z,20.07
2019-04-27T00:15:09.278Z,21.27
2019-04-27T00:17:58.288Z,18.03
2019-04-27T00:20:30.156Z,25.63
2019-04-27T00:23:00.262Z,23.73
2019-04-27T00:25:28.739Z,24.27
2019-04-27T00:27:57.292Z,26.43
2019-04-27T00:30:26.248Z,24.03
2019-04-27T00:32:54.722Z,26.43
2019-04-27T00:35:24.883Z,24.80
2019-04-27T00:37:54.997Z,23.67
2019-04-27T00:40:25.139Z,21.07
2019-04-27T00:42:54.143Z,29.80
2019-04-27T00:45:23.410Z,23.40
2019-04-27T00:47:59.014Z,27.50
2019-04-27T00:50:23.474Z,30.40
2019-04-27T00:52:53.202Z,35.47
2019-04-27T00:55:23.414Z,31.80
2019-04-27T00:58:00.017Z,40.70
2019-04-27T01:00:39.113Z,44.00
2019-04-27T01:03:13.863Z,40.63
2019-04-27T01:05:43.086Z,41.93
2019-04-27T01:08:11.714Z,37.50
2019-04-27T01:10:40.260Z,47.23
2019-04-27T01:13:09.000Z,34.30
2019-04-27T01:15:37.491Z,35.37
2019-04-27T01:18:12.192Z,42.00
2019-04-27T01:20:36.326Z,35.67
2019-04-27T01:23:05.684Z,23.30
2019-04-27T01:25:35.846Z,28.50
2019-04-27T01:28:12.429Z,29.93
2019-04-27T01:30:42.601Z,38.60
2019-04-27T01:33:11.980Z,39.50
2019-04-27T01:35:40.461Z,28.23
2019-04-27T01:38:09.120Z,35.70
2019-04-27T01:40:38.570Z,37.87
2019-04-27T01:43:09.045Z,35.57
2019-04-27T01:45:39.148Z,39.23
2019-04-27T01:48:20.848Z,41.43
2019-04-27T01:50:39.181Z,35.90
2019-04-27T01:53:09.102Z,38.07
2019-04-27T01:55:38.662Z,24.93
2019-04-27T01:58:10.680Z,37.00
2019-04-27T02:00:42.834Z,45.43
2019-04-27T02:03:13.029Z,46.03
2019-04-27T02:05:43.163Z,33.43
2019-04-27T02:08:11.708Z,41.13
2019-04-27T02:10:40.262Z,41.63
2019-04-27T02:13:09.029Z,54.30
2019-04-27T02:15:39.456Z,47.57
2019-04-27T02:18:09.475Z,50.77
2019-04-27T02:20:38.806Z,49.80
2019-04-27T02:23:09.068Z,47.97
2019-04-27T02:25:39.533Z,48.80
2019-04-27T02:28:09.631Z,46.60
2019-04-27T02:30:45.436Z,49.10
2019-04-27T02:33:30.186Z,45.30
2019-04-27T02:36:00.356Z,37.93
2019-04-27T02:38:30.544Z,47.70
2019-04-27T02:41:00.083Z,59.87
2019-04-27T02:43:32.746Z,48.23
2019-04-27T02:46:01.224Z,57.07
2019-04-27T02:48:30.031Z,60.40
2019-04-27T02:51:03.040Z,56.67
2019-04-27T02:53:51.524Z,59.77
2019-04-27T02:56:20.393Z,59.23
2019-04-27T02:58:49.599Z,61.20
2019-04-27T03:01:20.080Z,61.47
2019-04-27T03:03:50.272Z,63.40
2019-04-27T03:06:19.886Z,52.07
2019-04-27T03:08:52.766Z,55.67
2019-04-27T03:11:23.048Z,56.30
2019-04-27T03:13:53.718Z,59.83
2019-04-27T03:16:39.467Z,52.30
2019-04-27T03:19:17.970Z,64.50
2019-04-27T03:21:59.512Z,58.13
2019-04-27T03:24:45.827Z,54.77
2019-04-27T03:27:16.002Z,51.63
2019-04-27T03:29:44.582Z,44.30
2019-04-27T03:32:13.332Z,46.17
2019-04-27T03:34:42.291Z,55.17
2019-04-27T03:37:11.233Z,41.80
2019-04-27T03:39:39.941Z,41.80
2019-04-27T03:42:10.459Z,32.10
2019-04-27T03:44:39.804Z,39.90
2019-04-27T03:47:10.036Z,26.87
2019-04-27T03:49:41.648Z,33.70
2019-04-27T03:52:29.915Z,34.70
2019-04-27T03:55:00.897Z,44.73
2019-04-27T03:57:31.031Z,23.30
2019-04-27T04:00:03.910Z,31.60
2019-04-27T04:02:32.440Z,30.27
2019-04-27T04:05:00.921Z,26.13
2019-04-27T04:07:30.083Z,23.40
2019-04-27T04:10:00.294Z,27.63
2019-04-27T04:12:31.038Z,31.97
2019-04-27T04:15:00.051Z,18.10
2019-04-27T04:17:30.735Z,21.00
2019-04-27T04:20:01.611Z,20.70
2019-04-27T04:22:30.541Z,19.40
2019-04-27T04:24:59.922Z,20.07
2019-04-27T04:27:29.962Z,20.10
2019-04-27T04:29:59.449Z,18.90
2019-04-27T04:32:29.839Z,14.97
2019-04-27T04:35:23.087Z,14.80
2019-04-27T04:37:52.694Z,16.33
2019-04-27T04:40:33.852Z,13.50
2019-04-27T04:43:13.257Z,19.43
2019-04-27T04:45:52.590Z,15.33
2019-04-27T04:48:21.707Z,22.23
2019-04-27T04:50:50.367Z,16.27
2019-04-27T04:53:20.546Z,16.53
2019-04-27T04:55:49.171Z,17.87
2019-04-27T04:58:20.724Z,11.27
2019-04-27T05:00:50.243Z,11.03
2019-04-27T05:03:21.470Z,8.80
2019-04-27T05:05:50.138Z,11.17
2019-04-27T05:08:19.105Z,9.80
2019-04-27T05:10:49.667Z,10.90
2019-04-27T05:13:19.370Z,8.50
2019-04-27T05:15:48.673Z,7.00
2019-04-27T05:18:18.988Z,17.97
2019-04-27T05:20:58.648Z,7.60
2019-04-27T05:23:28.716Z,7.30
2019-04-27T05:25:59.171Z,4.43
2019-04-27T05:28:27.486Z,6.87
2019-04-27T05:30:56.010Z,5.33
2019-04-27T05:33:24.504Z,7.03
2019-04-27T05:35:52.991Z,16.13
2019-04-27T05:38:21.823Z,24.07
2019-04-27T05:40:50.319Z,7.63
2019-04-27T05:43:20.503Z,13.93
2019-04-27T05:46:12.356Z,3.70
2019-04-27T05:48:40.347Z,4.23
2019-04-27T05:51:09.257Z,3.50
2019-04-27T05:53:39.517Z,3.77
2019-04-27T05:56:09.426Z,3.20
2019-04-27T05:58:39.203Z,16.17
2019-04-27T06:01:10.935Z,3.33
2019-04-27T06:03:39.691Z,2.17
2019-04-27T06:06:09.654Z,6.97
2019-04-27T06:08:39.266Z,2.83
2019-04-27T06:11:09.440Z,5.07
2019-04-27T06:13:39.199Z,3.93
2019-04-27T06:16:09.466Z,3.53
2019-04-27T06:18:39.218Z,3.20
2019-04-27T06:21:09.609Z,4.33
2019-04-27T06:23:39.039Z,3.83
2019-04-27T06:26:11.369Z,4.10
2019-04-27T06:28:39.829Z,5.57
2019-04-27T06:31:08.808Z,8.13
2019-04-27T06:33:39.114Z,4.23
2019-04-27T06:36:09.868Z,4.80
2019-04-27T06:38:39.349Z,10.40
2019-04-27T06:41:10.092Z,9.43
2019-04-27T06:43:38.253Z,16.27
2019-04-27T06:46:06.734Z,7.70
2019-04-27T06:48:35.225Z,7.97
2019-04-27T06:51:05.689Z,8.60
2019-04-27T06:53:34.000Z,5.63
2019-04-27T06:56:02.471Z,6.90
2019-04-27T06:58:31.016Z,11.10
2019-04-27T07:00:59.667Z,12.10
2019-04-27T07:03:28.973Z,13.87
2019-04-27T07:05:58.877Z,9.23
2019-04-27T07:08:28.701Z,13.20
2019-04-27T07:10:58.849Z,17.57
2019-04-27T07:13:29.166Z,18.33
2019-04-27T07:15:59.579Z,23.43
2019-04-27T07:18:28.613Z,16.43
2019-04-27T07:20:58.682Z,20.63
2019-04-27T07:23:29.299Z,19.03
2019-04-27T07:25:57.535Z,23.30
2019-04-27T07:28:26.065Z,25.03
2019-04-27T07:30:54.543Z,25.27
2019-04-27T07:33:23.043Z,26.23
2019-04-27T07:35:51.567Z,29.60
2019-04-27T07:38:20.072Z,27.70
2019-04-27T07:40:49.582Z,24.23
2019-04-27T07:43:22.466Z,30.63
2019-04-27T07:45:50.949Z,27.87
2019-04-27T07:48:19.439Z,24.40
2019-04-27T07:50:48.643Z,24.77
2019-04-27T07:53:17.248Z,21.73
2019-04-27T07:55:45.739Z,30.40
2019-04-27T07:58:14.257Z,24.27
2019-04-27T08:00:42.823Z,26.43
2019-04-27T08:03:11.322Z,26.50
2019-04-27T08:05:39.877Z,24.20
2019-04-27T08:08:08.934Z,23.47
2019-04-27T08:10:39.097Z,34.87
2019-04-27T08:13:09.482Z,42.90
2019-04-27T08:15:39.583Z,27.50
2019-04-27T08:18:09.008Z,26.30
2019-04-27T08:20:39.108Z,36.97
2019-04-27T08:23:09.492Z,25.50
2019-04-27T08:25:39.214Z,28.37
2019-04-27T08:28:15.527Z,34.70
2019-04-27T08:30:51.679Z,22.17
2019-04-27T08:33:20.201Z,22.37
2019-04-27T08:35:49.139Z,27.00
2019-04-27T08:38:20.383Z,26.93
2019-04-27T08:40:49.348Z,32.30
2019-04-27T08:43:19.107Z,22.30
2019-04-27T08:45:48.812Z,30.70
2019-04-27T08:48:25.137Z,25.67
2019-04-27T08:50:48.672Z,27.97
2019-04-27T08:53:18.651Z,25.67
2019-04-27T08:55:47.281Z,29.27
2019-04-27T08:58:15.760Z,20.70
2019-04-27T09:00:44.256Z,32.53
2019-04-27T09:03:12.776Z,21.97
2019-04-27T09:05:41.256Z,29.87
2019-04-27T09:08:20.632Z,36.53
2019-04-27T09:10:50.847Z,23.80
2019-04-27T09:13:23.687Z,25.07
2019-04-27T09:15:53.852Z,26.23
2019-04-27T09:18:24.048Z,34.63
2019-04-27T09:20:54.253Z,22.20
2019-04-27T09:23:22.787Z,24.33
2019-04-27T09:25:51.284Z,19.50
2019-04-27T09:28:21.718Z,20.27
2019-04-27T09:30:50.041Z,26.40
2019-04-27T09:33:18.601Z,23.67
2019-04-27T09:35:47.092Z,22.77
2019-04-27T09:38:16.725Z,24.43
2019-04-27T09:40:46.586Z,23.20
2019-04-27T09:43:15.778Z,21.97
2019-04-27T09:45:44.751Z,27.90
2019-04-27T09:48:13.239Z,26.77
2019-04-27T09:50:41.796Z,22.53
2019-04-27T09:53:12.099Z,28.10
2019-04-27T09:55:40.576Z,25.60
2019-04-27T09:58:09.060Z,23.63
2019-04-27T10:00:37.639Z,56.13
2019-04-27T10:03:06.715Z,29.70
2019-04-27T10:05:36.754Z,29.50
2019-04-27T10:08:06.196Z,31.87
2019-04-27T10:10:34.851Z,31.20
2019-04-27T10:13:03.342Z,28.33
2019-04-27T10:15:31.918Z,31.37
2019-04-27T10:18:00.412Z,31.40
2019-04-27T10:20:28.903Z,35.70
2019-04-27T10:22:57.471Z,32.20
2019-04-27T10:25:27.888Z,28.67
2019-04-27T10:27:59.414Z,31.10
2019-04-27T10:30:28.589Z,30.70
2019-04-27T10:32:57.157Z,31.00
2019-04-27T10:35:26.078Z,27.43
2019-04-27T10:37:54.742Z,29.00
2019-04-27T10:40:23.305Z,39.70
2019-04-27T10:42:51.802Z,27.83
2019-04-27T10:45:20.343Z,27.00
2019-04-27T10:47:49.603Z,29.17
2019-04-27T10:50:18.428Z,29.60
2019-04-27T10:52:53.324Z,27.53
2019-04-27T10:55:17.312Z,23.30
2019-04-27T10:57:45.894Z,22.40
2019-04-27T11:00:16.802Z,17.10
2019-04-27T11:02:45.390Z,23.07
2019-04-27T11:05:16.786Z,27.20
2019-04-27T11:07:46.359Z,28.27
2019-04-27T11:10:16.284Z,26.00
2019-04-27T11:12:45.816Z,26.23
2019-04-27T11:15:17.237Z,24.00
2019-04-27T11:17:47.543Z,29.17
2019-04-27T11:20:16.116Z,22.27
2019-04-27T11:22:46.385Z,22.90
2019-04-27T11:25:16.455Z,23.90
2019-04-27T11:27:45.011Z,24.70
2019-04-27T11:30:15.574Z,23.23
2019-04-27T11:32:44.003Z,25.63
2019-04-27T11:35:21.863Z,25.80
2019-04-27T11:37:52.264Z,22.83
2019-04-27T11:40:22.004Z,24.90
2019-04-27T11:42:50.590Z,29.23
2019-04-27T11:45:19.266Z,27.83
2019-04-27T11:47:47.752Z,21.93
2019-04-27T11:50:17.281Z,21.47
2019-04-27T11:52:45.854Z,21.70
2019-04-27T11:55:16.128Z,24.13
2019-04-27T11:57:44.764Z,19.73
2019-04-27T12:00:18.413Z,22.50
2019-04-27T12:02:46.906Z,20.03
2019-04-27T12:05:16.150Z,19.07
2019-04-27T12:07:47.402Z,20.87
2019-04-27T12:10:15.903Z,20.13
2019-04-27T12:12:46.181Z,23.50
2019-04-27T12:15:16.224Z,23.80
2019-04-27T12:17:46.155Z,17.43
2019-04-27T12:20:16.039Z,24.30
2019-04-27T12:22:45.481Z,25.80
2019-04-27T12:25:14.108Z,19.33
2019-04-27T12:27:45.832Z,20.80
2019-04-27T12:30:16.312Z,18.23
2019-04-27T12:32:45.774Z,17.07
2019-04-27T12:35:14.433Z,23.80
2019-04-27T12:37:42.921Z,19.50
2019-04-27T12:40:11.558Z,22.77
2019-04-27T12:42:40.085Z,26.30
2019-04-27T12:45:08.820Z,18.23
2019-04-27T12:47:37.376Z,21.33
2019-04-27T12:50:10.456Z,24.50
2019-04-27T12:52:40.909Z,21.00
2019-04-27T12:55:22.878Z,23.03
2019-04-27T12:57:53.022Z,22.20
2019-04-27T13:00:29.420Z,17.57
2019-04-27T13:02:58.012Z,20.17
2019-04-27T13:05:26.500Z,20.40
2019-04-27T13:07:55.051Z,19.13
2019-04-27T13:10:23.627Z,20.00
2019-04-27T13:12:52.111Z,20.57
2019-04-27T13:15:20.713Z,17.87
2019-04-27T13:17:49.207Z,21.00
2019-04-27T13:20:17.848Z,18.10
2019-04-27T13:22:46.380Z,16.90
2019-04-27T13:25:15.103Z,17.20
2019-04-27T13:27:43.607Z,28.60
2019-04-27T13:30:12.518Z,15.83
2019-04-27T13:32:41.005Z,18.93
2019-04-27T13:35:09.561Z,20.40
2019-04-27T13:37:42.766Z,21.60
2019-04-27T13:40:13.488Z,15.67
2019-04-27T13:42:57.547Z,15.73
2019-04-27T13:45:44.200Z,19.77
2019-04-27T13:48:23.374Z,15.30
2019-04-27T13:50:53.498Z,17.57
2019-04-27T13:53:21.982Z,17.33
2019-04-27T13:55:50.704Z,23.30
2019-04-27T13:58:19.178Z,12.37
2019-04-27T14:00:47.664Z,14.43
2019-04-27T14:03:16.773Z,20.20
2019-04-27T14:05:45.368Z,18.30
2019-04-27T14:08:13.853Z,22.13
2019-04-27T14:10:42.390Z,20.50
2019-04-27T14:13:11.163Z,24.43
2019-04-27T14:15:39.738Z,20.13
2019-04-27T14:18:08.509Z,26.93
2019-04-27T14:20:38.849Z,20.30
2019-04-27T14:23:18.800Z,26.77
2019-04-27T14:25:47.438Z,22.13
2019-04-27T14:28:15.911Z,25.40
2019-04-27T14:30:44.457Z,23.57
2019-04-27T14:33:12.949Z,26.43
2019-04-27T14:35:41.431Z,23.27
2019-04-27T14:38:09.955Z,27.60
2019-04-27T14:40:39.229Z,26.87
2019-04-27T14:43:08.489Z,25.97
2019-04-27T14:45:38.263Z,25.13
2019-04-27T14:48:08.270Z,25.00
2019-04-27T14:50:38.636Z,25.43
2019-04-27T14:53:08.812Z,18.70
2019-04-27T14:55:38.798Z,22.40
2019-04-27T14:58:08.738Z,38.63
2019-04-27T15:00:38.465Z,21.50
2019-04-27T15:03:07.155Z,22.60
2019-04-27T15:05:35.647Z,23.97
2019-04-27T15:08:06.409Z,25.30
2019-04-27T15:10:36.082Z,20.90
2019-04-27T15:13:06.647Z,20.50
2019-04-27T15:15:35.363Z,19.00
2019-04-27T15:18:05.442Z,16.70
2019-04-27T15:20:41.336Z,24.10
2019-04-27T15:23:10.142Z,23.60
2019-04-27T15:25:44.918Z,24.80
2019-04-27T15:28:12.177Z,18.77
2019-04-27T15:30:54.315Z,21.67
2019-04-27T15:33:40.559Z,21.53
2019-04-27T15:36:14.565Z,20.60
2019-04-27T15:38:47.755Z,20.10
2019-04-27T15:41:15.341Z,19.03
2019-04-27T15:43:45.503Z,17.80
2019-04-27T15:46:14.079Z,20.27
2019-04-27T15:48:42.585Z,17.80
2019-04-27T15:51:17.410Z,15.87
2019-04-27T15:53:45.553Z,17.13
2019-04-27T15:56:11.594Z,14.10
2019-04-27T15:58:40.146Z,19.73
2019-04-27T16:01:11.952Z,15.43
2019-04-27T16:03:39.615Z,20.20
2019-04-27T16:06:11.845Z,13.80
2019-04-27T16:08:44.951Z,21.77
2019-04-27T16:11:11.700Z,15.30
2019-04-27T16:13:38.821Z,18.80
2019-04-27T16:16:08.444Z,21.07
2019-04-27T16:18:38.811Z,19.47
2019-04-27T16:21:10.645Z,18.50
2019-04-27T16:23:42.832Z,18.03
2019-04-27T16:26:10.956Z,14.63
2019-04-27T16:28:38.247Z,15.20
2019-04-27T16:31:06.739Z,19.00
2019-04-27T16:33:35.223Z,15.03
2019-04-27T16:36:06.887Z,22.63
2019-04-27T16:38:35.763Z,23.50
2019-04-27T16:41:04.320Z,14.93
2019-04-27T16:43:33.084Z,13.23
2019-04-27T16:46:04.201Z,12.93
2019-04-27T16:48:34.577Z,11.97
2019-04-27T16:51:02.147Z,10.70
2019-04-27T16:53:39.446Z,15.10
2019-04-27T16:56:14.417Z,12.40
2019-04-27T16:58:39.428Z,10.90
2019-04-27T17:01:11.634Z,12.33
2019-04-27T17:03:41.436Z,13.13
2019-04-27T17:06:10.220Z,12.87
2019-04-27T17:08:39.389Z,15.20
2019-04-27T17:11:11.603Z,14.10
2019-04-27T17:13:44.105Z,14.63
2019-04-27T17:16:11.833Z,14.20
2019-04-27T17:18:41.990Z,18.27
2019-04-27T17:21:19.046Z,14.83
2019-04-27T17:23:40.785Z,17.30
2019-04-27T17:26:20.666Z,27.93
2019-04-27T17:28:44.158Z,14.67
2019-04-27T17:31:19.758Z,15.50
2019-04-27T17:33:58.668Z,12.67
2019-04-27T17:36:29.254Z,11.40
2019-04-27T17:38:58.407Z,14.40
2019-04-27T17:41:28.347Z,16.47
2019-04-27T17:43:58.930Z,21.83
2019-04-27T17:46:28.160Z,18.70
2019-04-27T17:48:58.562Z,20.27
2019-04-27T17:51:28.565Z,18.57
2019-04-27T17:53:58.593Z,17.17
2019-04-27T17:56:34.012Z,19.40
2019-04-27T17:58:58.584Z,14.30
2019-04-27T18:01:30.033Z,16.10
2019-04-27T18:04:00.160Z,13.10
2019-04-27T18:06:29.863Z,21.20
2019-04-27T18:09:00.803Z,17.10
2019-04-27T18:11:28.819Z,14.20
2019-04-27T18:14:00.300Z,18.00
2019-04-27T18:16:30.321Z,15.53
2019-04-27T18:19:11.576Z,13.90
2019-04-27T18:21:40.082Z,19.20
2019-04-27T18:24:13.237Z,15.40
2019-04-27T18:27:00.805Z,17.90
2019-04-27T18:29:22.816Z,19.30
2019-04-27T18:31:54.632Z,21.03
2019-04-27T18:34:22.974Z,17.93
2019-04-27T18:36:51.507Z,18.30
2019-04-27T18:39:20.023Z,19.03
2019-04-27T18:41:50.477Z,18.17
2019-04-27T18:44:19.182Z,21.00
2019-04-27T18:46:48.923Z,21.00
2019-04-27T18:49:35.429Z,19.07
2019-04-27T18:52:08.944Z,22.60
2019-04-27T18:54:41.775Z,22.93
2019-04-27T18:57:10.924Z,14.67
2019-04-27T18:59:38.086Z,15.33
2019-04-27T19:02:08.503Z,22.30
2019-04-27T19:04:37.134Z,20.03
2019-04-27T19:07:08.637Z,19.20
2019-04-27T19:09:36.893Z,19.40
2019-04-27T19:12:05.482Z,21.53
2019-04-27T19:14:33.968Z,24.23
2019-04-27T19:17:02.458Z,26.17
2019-04-27T19:19:31.000Z,20.30
2019-04-27T19:21:59.483Z,19.70
2019-04-27T19:24:29.245Z,31.27
2019-04-27T19:27:15.104Z,20.40
2019-04-27T19:29:33.943Z,26.23
2019-04-27T19:32:03.801Z,21.20
2019-04-27T19:34:32.325Z,20.10
2019-04-27T19:37:00.945Z,22.00
2019-04-27T19:39:29.438Z,20.47
2019-04-27T19:42:02.990Z,21.20
2019-04-27T19:44:29.159Z,23.27
2019-04-27T19:47:00.188Z,21.23
2019-04-27T19:49:29.413Z,26.80
2019-04-27T19:51:59.200Z,25.17
2019-04-27T19:54:28.257Z,19.27
2019-04-27T19:56:59.505Z,24.90
2019-04-27T19:59:29.832Z,29.23
2019-04-27T20:01:59.952Z,20.63
2019-04-27T20:04:30.756Z,18.13
2019-04-27T20:06:59.689Z,21.30
2019-04-27T20:09:30.117Z,21.00
2019-04-27T20:11:58.649Z,18.10
2019-04-27T20:14:27.285Z,16.07
2019-04-27T20:16:57.419Z,18.10
2019-04-27T20:19:25.930Z,17.90
2019-04-27T20:21:54.453Z,17.13
2019-04-27T20:24:22.949Z,18.93
2019-04-27T20:26:51.542Z,17.20
2019-04-27T20:29:21.312Z,14.17
2019-04-27T20:31:51.182Z,18.97
2019-04-27T20:34:20.902Z,18.83
2019-04-27T20:36:51.084Z,14.70
2019-04-27T20:39:20.379Z,13.93
2019-04-27T20:41:48.930Z,14.53
2019-04-27T20:44:17.406Z,14.60
2019-04-27T20:46:45.958Z,21.90
2019-04-27T20:49:16.122Z,16.50
2019-04-27T20:52:02.632Z,13.80
2019-04-27T20:54:32.801Z,12.63
2019-04-27T20:57:01.588Z,11.43
2019-04-27T20:59:31.879Z,12.00
2019-04-27T21:02:02.072Z,13.97
2019-04-27T21:04:41.949Z,10.97
2019-04-27T21:07:12.032Z,11.70
2019-04-27T21:09:41.417Z,13.80
2019-04-27T21:12:10.160Z,10.93
2019-04-27T21:14:38.706Z,10.83
2019-04-27T21:17:07.203Z,10.30
2019-04-27T21:19:35.694Z,15.93
2019-04-27T21:22:04.273Z,9.40
2019-04-27T21:24:32.763Z,10.27
2019-04-27T21:27:01.259Z,10.83
2019-04-27T21:29:31.141Z,10.77
2019-04-27T21:32:01.076Z,8.97
2019-04-27T21:34:31.034Z,13.43
2019-04-27T21:37:01.036Z,9.50
2019-04-27T21:39:29.587Z,6.87
2019-04-27T21:41:58.070Z,10.23
2019-04-27T21:44:26.586Z,7.43
2019-04-27T21:46:55.082Z,9.07
2019-04-27T21:49:23.558Z,8.80
2019-04-27T21:52:05.503Z,13.43
2019-04-27T21:54:38.618Z,14.47
2019-04-27T21:57:07.110Z,10.23
2019-04-27T21:59:35.619Z,14.10
2019-04-27T22:02:06.056Z,12.00
2019-04-27T22:04:34.535Z,9.77
2019-04-27T22:07:03.142Z,10.40
2019-04-27T22:09:31.691Z,12.23
2019-04-27T22:12:00.635Z,13.53
2019-04-27T22:14:30.905Z,10.80
2019-04-27T22:17:00.825Z,12.70
2019-04-27T22:19:31.259Z,11.47
2019-04-27T22:22:01.462Z,13.93
2019-04-27T22:24:31.586Z,13.30
2019-04-27T22:27:00.077Z,15.77
2019-04-27T22:29:28.691Z,12.10
2019-04-27T22:31:57.170Z,14.00
2019-04-27T22:34:25.683Z,16.10
2019-04-27T22:36:54.204Z,21.13
2019-04-27T22:39:33.651Z,12.80
2019-04-27T22:42:09.635Z,18.50
2019-04-27T22:44:45.351Z,18.10
2019-04-27T22:47:13.821Z,12.40
2019-04-27T22:49:42.348Z,11.40
2019-04-27T22:52:11.767Z,12.37
2019-04-27T22:54:42.054Z,11.80
2019-04-27T22:57:18.198Z,10.60
2019-04-27T22:59:51.293Z,14.40
2019-04-27T23:02:21.805Z,10.00
2019-04-27T23:04:54.800Z,11.47
2019-04-27T23:07:23.358Z,12.07
2019-04-27T23:09:51.830Z,9.63
2019-04-27T23:12:21.205Z,16.07
2019-04-27T23:14:50.630Z,10.80
2019-04-27T23:17:26.574Z,11.10
2019-04-27T23:19:55.056Z,10.30
2019-04-27T23:22:23.548Z,9.70
2019-04-27T23:24:52.103Z,14.20
2019-04-27T23:27:21.610Z,12.83
2019-04-27T23:29:51.439Z,9.10
2019-04-27T23:32:23.723Z,10.67
2019-04-27T23:34:52.033Z,11.13
2019-04-27T23:37:20.518Z,10.20
2019-04-27T23:39:49.035Z,11.03
2019-04-27T23:42:17.543Z,10.37
2019-04-27T23:44:46.019Z,10.43
2019-04-27T23:47:14.579Z,9.67
2019-04-27T23:49:43.221Z,10.07
2019-04-27T23:52:13.357Z,11.97
2019-04-27T23:54:42.957Z,12.13
2019-04-27T23:57:11.813Z,15.73
2019-04-27T23:59:41.577Z,11.50
